createdAt,value
2023-10-14T00:00:22.797Z,31.76
2023-10-14T00:01:29.272Z,31.95
2023-10-14T00:02:30.731Z,32.45
2023-10-14T00:03:32.252Z,32.90
2023-10-14T00:04:33.770Z,32.96
2023-10-14T00:05:35.202Z,32.79
2023-10-14T00:06:36.554Z,32.71
2023-10-14T00:07:37.915Z,32.70
2023-10-14T00:08:41.470Z,32.80
2023-10-14T00:09:42.837Z,32.73
2023-10-14T00:10:44.271Z,32.76
2023-10-14T00:11:45.583Z,32.49
2023-10-14T00:12:46.999Z,32.46
2023-10-14T00:13:48.763Z,32.74
2023-10-14T00:14:52.887Z,33.25
2023-10-14T00:15:54.324Z,33.25
2023-10-14T00:16:55.696Z,33.45
2023-10-14T00:17:57.074Z,33.36
2023-10-14T00:19:00.593Z,33.89
2023-10-14T00:20:02.354Z,34.15
2023-10-14T00:21:03.734Z,34.56
2023-10-14T00:22:05.125Z,34.80
2023-10-14T00:23:06.497Z,34.91
2023-10-14T00:24:08.126Z,35.18
2023-10-14T00:25:09.557Z,35.60
2023-10-14T00:26:11.146Z,35.38
2023-10-14T00:27:12.550Z,35.69
2023-10-14T00:28:13.918Z,36.12
2023-10-14T00:29:15.307Z,36.19
2023-10-14T00:30:16.739Z,36.28
2023-10-14T00:31:18.098Z,36.41
2023-10-14T00:32:19.510Z,36.70
2023-10-14T00:33:20.844Z,37.06
2023-10-14T00:34:22.226Z,36.82
2023-10-14T00:35:23.601Z,37.04
2023-10-14T00:36:24.991Z,37.75
2023-10-14T00:37:26.340Z,38.76
2023-10-14T00:38:27.674Z,38.86
2023-10-14T00:39:29.056Z,38.94
2023-10-14T00:40:30.824Z,38.73
2023-10-14T00:41:32.238Z,39.58
2023-10-14T00:42:33.558Z,39.37
2023-10-14T00:43:35.687Z,39.84
2023-10-14T00:44:37.188Z,39.71
2023-10-14T00:45:38.526Z,40.01
2023-10-14T00:46:41.235Z,39.94
2023-10-14T00:47:42.821Z,40.18
2023-10-14T00:48:45.961Z,40.41
2023-10-14T00:49:47.372Z,40.38
2023-10-14T00:50:48.977Z,40.50
2023-10-14T00:51:55.059Z,40.39
2023-10-14T00:52:57.231Z,40.52
2023-10-14T00:53:59.174Z,40.43
2023-10-14T00:55:01.632Z,40.30
2023-10-14T00:56:03.396Z,40.32
2023-10-14T00:57:04.896Z,40.31
2023-10-14T00:58:06.310Z,40.13
2023-10-14T00:59:08.728Z,40.10
2023-10-14T01:00:10.493Z,40.14
2023-10-14T01:01:11.914Z,40.63
2023-10-14T01:02:13.315Z,40.38
2023-10-14T01:03:15.563Z,39.76
2023-10-14T01:04:17.196Z,40.45
2023-10-14T01:05:18.623Z,40.18
2023-10-14T01:06:20.015Z,40.49
2023-10-14T01:07:21.389Z,40.39
2023-10-14T01:08:26.294Z,40.69
2023-10-14T01:09:29.105Z,40.41
2023-10-14T01:10:30.481Z,40.29
2023-10-14T01:11:33.042Z,40.42
2023-10-14T01:12:34.424Z,40.65
2023-10-14T01:13:36.924Z,40.98
2023-10-14T01:14:38.249Z,40.94
2023-10-14T01:15:39.633Z,41.08
2023-10-14T01:16:41.397Z,41.51
2023-10-14T01:17:42.852Z,41.10
2023-10-14T01:18:44.303Z,41.17
2023-10-14T01:19:45.673Z,41.11
2023-10-14T01:20:47.087Z,41.21
2023-10-14T01:21:48.518Z,41.50
2023-10-14T01:22:50.137Z,41.48
2023-10-14T01:23:54.350Z,41.79
2023-10-14T01:24:55.775Z,42.00
2023-10-14T01:25:57.178Z,42.14
2023-10-14T01:26:58.633Z,42.17
2023-10-14T01:28:01.453Z,42.95
2023-10-14T01:29:03.658Z,43.07
2023-10-14T01:30:05.796Z,43.07
2023-10-14T01:31:31.439Z,43.61
2023-10-14T01:32:33.020Z,43.51
2023-10-14T01:33:34.496Z,44.45
2023-10-14T01:34:35.926Z,43.51
2023-10-14T01:35:37.305Z,43.58
2023-10-14T01:36:38.668Z,43.99
2023-10-14T01:37:40.725Z,44.08
2023-10-14T01:38:42.348Z,44.99
2023-10-14T01:39:44.449Z,45.31
2023-10-14T01:40:45.893Z,45.48
2023-10-14T01:41:47.224Z,45.92
2023-10-14T01:42:48.665Z,45.91
2023-10-14T01:43:50.096Z,46.25
2023-10-14T01:44:51.410Z,45.97
2023-10-14T01:45:52.871Z,46.28
2023-10-14T01:46:54.339Z,46.41
2023-10-14T01:47:56.139Z,46.63
2023-10-14T01:48:57.517Z,46.30
2023-10-14T01:49:59.189Z,46.17
2023-10-14T01:51:00.523Z,46.21
2023-10-14T01:52:01.940Z,46.20
2023-10-14T01:53:03.375Z,46.65
2023-10-14T01:54:06.157Z,46.99
2023-10-14T01:55:08.018Z,46.88
2023-10-14T01:56:09.351Z,46.76
2023-10-14T01:57:10.678Z,47.52
2023-10-14T01:58:12.400Z,47.97
2023-10-14T01:59:13.963Z,47.62
2023-10-14T02:00:15.590Z,47.00
2023-10-14T02:01:17.116Z,47.35
2023-10-14T02:02:18.831Z,47.30
2023-10-14T02:03:24.804Z,47.73
2023-10-14T02:04:26.521Z,47.67
2023-10-14T02:05:28.460Z,47.73
2023-10-14T02:06:29.828Z,47.50
2023-10-14T02:07:31.491Z,47.64
2023-10-14T02:08:35.908Z,48.50
2023-10-14T02:09:37.327Z,47.75
2023-10-14T02:10:38.672Z,48.23
2023-10-14T02:11:40.185Z,47.79
2023-10-14T02:12:41.542Z,47.84
2023-10-14T02:13:43.305Z,47.87
2023-10-14T02:14:44.652Z,48.05
2023-10-14T02:15:46.646Z,47.71
2023-10-14T02:16:48.246Z,48.17
2023-10-14T02:17:49.819Z,48.60
2023-10-14T02:18:51.914Z,48.70
2023-10-14T02:19:53.333Z,48.69
2023-10-14T02:20:55.560Z,48.25
2023-10-14T02:21:56.962Z,48.74
2023-10-14T02:22:58.521Z,48.46
2023-10-14T02:23:59.837Z,48.52
2023-10-14T02:25:01.213Z,48.76
2023-10-14T02:26:02.561Z,49.35
2023-10-14T02:27:04.646Z,49.22
2023-10-14T02:28:06.268Z,49.42
2023-10-14T02:29:08.145Z,48.94
2023-10-14T02:30:11.480Z,49.18
2023-10-14T02:31:14.270Z,49.42
2023-10-14T02:32:15.871Z,49.28
2023-10-14T02:33:18.496Z,49.35
2023-10-14T02:34:19.911Z,49.19
2023-10-14T02:35:21.293Z,49.18
2023-10-14T02:36:24.870Z,49.26
2023-10-14T02:37:26.222Z,49.61
2023-10-14T02:38:28.070Z,49.19
2023-10-14T02:39:29.461Z,49.17
2023-10-14T02:40:30.850Z,49.44
2023-10-14T02:41:32.177Z,49.63
2023-10-14T02:42:33.579Z,50.33
2023-10-14T02:43:35.137Z,49.93
2023-10-14T02:44:38.673Z,50.28
2023-10-14T02:45:42.508Z,50.22
2023-10-14T02:46:44.000Z,50.63
2023-10-14T02:47:45.443Z,49.71
2023-10-14T02:48:48.194Z,49.12
2023-10-14T02:49:49.648Z,49.42
2023-10-14T02:50:50.962Z,49.37
2023-10-14T02:51:52.388Z,49.52
2023-10-14T02:52:53.737Z,49.90
2023-10-14T02:53:55.138Z,49.87
2023-10-14T02:54:56.597Z,49.53
2023-10-14T02:55:58.007Z,49.54
2023-10-14T02:56:59.335Z,49.97
2023-10-14T02:58:00.762Z,49.81
2023-10-14T02:59:02.291Z,49.45
2023-10-14T03:00:03.933Z,49.47
2023-10-14T03:01:05.407Z,49.13
2023-10-14T03:02:06.801Z,50.18
2023-10-14T03:03:08.337Z,49.91
2023-10-14T03:04:09.792Z,49.91
2023-10-14T03:05:11.143Z,49.37
2023-10-14T03:06:12.472Z,49.29
2023-10-14T03:07:13.840Z,49.70
2023-10-14T03:08:15.180Z,50.42
2023-10-14T03:09:16.523Z,49.77
2023-10-14T03:10:18.027Z,49.81
2023-10-14T03:11:19.403Z,49.87
2023-10-14T03:12:20.790Z,50.21
2023-10-14T03:13:23.418Z,50.03
2023-10-14T03:14:24.775Z,50.12
2023-10-14T03:15:26.420Z,49.78
2023-10-14T03:16:27.824Z,49.36
2023-10-14T03:17:29.197Z,49.64
2023-10-14T03:18:30.555Z,49.61
2023-10-14T03:19:31.946Z,50.36
2023-10-14T03:20:40.798Z,50.20
2023-10-14T03:21:42.138Z,50.34
2023-10-14T03:22:43.499Z,50.48
2023-10-14T03:23:44.858Z,50.42
2023-10-14T03:24:46.268Z,50.38
2023-10-14T03:25:48.893Z,50.87
2023-10-14T03:26:50.206Z,50.17
2023-10-14T03:27:52.580Z,51.01
2023-10-14T03:28:54.098Z,50.35
2023-10-14T03:29:55.541Z,50.72
2023-10-14T03:31:02.822Z,50.64
2023-10-14T03:32:04.405Z,49.83
2023-10-14T03:33:07.229Z,49.87
2023-10-14T03:34:08.616Z,49.95
2023-10-14T03:35:10.860Z,50.20
2023-10-14T03:36:15.742Z,49.89
2023-10-14T03:37:17.339Z,49.91
2023-10-14T03:38:18.725Z,49.95
2023-10-14T03:39:20.048Z,49.84
2023-10-14T03:40:21.983Z,50.10
2023-10-14T03:41:23.931Z,50.09
2023-10-14T03:42:27.258Z,50.25
2023-10-14T03:43:29.506Z,50.00
2023-10-14T03:44:30.868Z,50.16
2023-10-14T03:45:32.270Z,49.71
2023-10-14T03:46:33.714Z,49.68
2023-10-14T03:47:35.396Z,49.59
2023-10-14T03:48:36.823Z,49.99
2023-10-14T03:49:38.282Z,49.92
2023-10-14T03:50:40.681Z,49.98
2023-10-14T03:51:42.062Z,49.31
2023-10-14T03:52:43.677Z,49.04
2023-10-14T03:53:45.023Z,49.25
2023-10-14T03:54:46.431Z,49.73
2023-10-14T03:55:47.860Z,49.16
2023-10-14T03:56:49.234Z,49.45
2023-10-14T03:57:50.586Z,49.88
2023-10-14T03:58:56.213Z,49.69
2023-10-14T03:59:57.568Z,49.55
2023-10-14T04:01:01.832Z,49.61
2023-10-14T04:02:03.247Z,50.12
2023-10-14T04:03:07.046Z,49.95
2023-10-14T04:04:08.957Z,50.42
2023-10-14T04:05:10.329Z,50.21
2023-10-14T04:06:11.719Z,49.74
2023-10-14T04:07:13.132Z,50.12
2023-10-14T04:08:14.513Z,49.85
2023-10-14T04:09:15.852Z,50.95
2023-10-14T04:10:17.319Z,52.76
2023-10-14T04:11:21.325Z,55.17
2023-10-14T04:12:22.641Z,59.35
2023-10-14T04:13:23.958Z,59.91
2023-10-14T04:14:25.308Z,61.10
2023-10-14T04:15:26.660Z,62.60
2023-10-14T04:16:28.958Z,62.56
2023-10-14T04:17:30.295Z,63.95
2023-10-14T04:18:31.686Z,63.88
2023-10-14T04:19:33.122Z,65.36
2023-10-14T04:20:34.577Z,67.36
2023-10-14T04:21:36.013Z,66.82
2023-10-14T04:22:38.277Z,66.97
2023-10-14T04:23:39.727Z,67.78
2023-10-14T04:24:41.179Z,68.05
2023-10-14T04:25:42.566Z,68.26
2023-10-14T04:26:43.962Z,68.57
2023-10-14T04:27:50.705Z,68.86
2023-10-14T04:28:52.043Z,68.12
2023-10-14T04:29:53.448Z,68.42
2023-10-14T04:30:54.865Z,68.81
2023-10-14T04:31:56.344Z,69.27
2023-10-14T04:32:58.690Z,69.23
2023-10-14T04:34:00.152Z,69.02
2023-10-14T04:35:02.423Z,69.75
2023-10-14T04:36:03.915Z,69.95
2023-10-14T04:37:05.407Z,69.76
2023-10-14T04:38:06.737Z,70.03
2023-10-14T04:39:08.076Z,70.66
2023-10-14T04:40:10.030Z,70.65
2023-10-14T04:41:11.503Z,71.29
2023-10-14T04:42:12.808Z,71.03
2023-10-14T04:43:14.638Z,71.02
2023-10-14T04:44:16.004Z,70.95
2023-10-14T04:45:17.374Z,71.24
2023-10-14T04:46:18.890Z,70.79
2023-10-14T04:47:20.540Z,70.98
2023-10-14T04:48:23.670Z,71.08
2023-10-14T04:49:25.310Z,70.86
2023-10-14T04:50:26.937Z,71.24
2023-10-14T04:51:28.317Z,71.81
2023-10-14T04:52:32.481Z,71.31
2023-10-14T04:53:34.256Z,71.55
2023-10-14T04:54:35.722Z,71.45
2023-10-14T04:55:43.177Z,71.34
2023-10-14T04:56:44.482Z,71.61
2023-10-14T04:57:46.683Z,71.59
2023-10-14T04:58:49.049Z,70.83
2023-10-14T04:59:50.660Z,70.78
2023-10-14T05:00:52.389Z,71.12
2023-10-14T05:01:53.958Z,71.49
2023-10-14T05:02:55.483Z,71.00
2023-10-14T05:03:58.471Z,71.61
2023-10-14T05:05:00.198Z,71.40
2023-10-14T05:06:01.757Z,71.46
2023-10-14T05:07:03.129Z,72.42
2023-10-14T05:08:06.611Z,72.22
2023-10-14T05:09:08.646Z,72.06
2023-10-14T05:10:10.230Z,72.40
2023-10-14T05:11:12.851Z,72.69
2023-10-14T05:12:14.395Z,72.77
2023-10-14T05:13:15.814Z,73.14
2023-10-14T05:14:17.185Z,72.79
2023-10-14T05:15:18.574Z,73.22
2023-10-14T05:16:20.160Z,72.76
2023-10-14T05:17:21.528Z,72.43
2023-10-14T05:18:22.854Z,71.97
2023-10-14T05:19:25.212Z,71.77
2023-10-14T05:20:28.102Z,72.04
2023-10-14T05:21:30.136Z,71.87
2023-10-14T05:22:31.439Z,71.63
2023-10-14T05:23:32.827Z,72.25
2023-10-14T05:24:34.124Z,72.26
2023-10-14T05:25:35.548Z,72.12
2023-10-14T05:26:41.632Z,72.14
2023-10-14T05:27:44.347Z,72.04
2023-10-14T05:28:45.676Z,72.22
2023-10-14T05:29:47.053Z,72.17
2023-10-14T05:30:49.137Z,72.07
2023-10-14T05:31:51.412Z,72.50
2023-10-14T05:32:52.993Z,72.01
2023-10-14T05:33:54.442Z,72.17
2023-10-14T05:34:55.892Z,71.50
2023-10-14T05:35:57.744Z,71.22
2023-10-14T05:36:59.137Z,70.49
2023-10-14T05:38:00.445Z,70.83
2023-10-14T05:39:03.517Z,70.84
2023-10-14T05:40:05.383Z,70.74
2023-10-14T05:41:07.906Z,70.26
2023-10-14T05:42:11.083Z,70.32
2023-10-14T05:43:12.416Z,70.04
2023-10-14T05:44:13.814Z,70.39
2023-10-14T05:45:15.495Z,70.56
2023-10-14T05:46:16.896Z,70.06
2023-10-14T05:47:19.636Z,69.97
2023-10-14T05:48:22.315Z,69.93
2023-10-14T05:49:24.295Z,69.63
2023-10-14T05:50:26.119Z,70.03
2023-10-14T05:51:27.502Z,70.45
2023-10-14T05:52:29.104Z,69.95
2023-10-14T05:53:30.463Z,70.03
2023-10-14T05:54:31.843Z,69.93
2023-10-14T05:55:35.514Z,69.78
2023-10-14T05:56:36.857Z,70.18
2023-10-14T05:57:38.590Z,70.05
2023-10-14T05:58:39.906Z,69.56
2023-10-14T05:59:41.224Z,69.70
2023-10-14T06:00:42.662Z,69.81
2023-10-14T06:01:44.307Z,69.40
2023-10-14T06:02:53.291Z,69.34
2023-10-14T06:03:54.864Z,68.62
2023-10-14T06:04:56.568Z,68.30
2023-10-14T06:06:03.059Z,68.15
2023-10-14T06:07:05.650Z,67.71
2023-10-14T06:08:07.461Z,68.02
2023-10-14T06:09:10.234Z,67.58
2023-10-14T06:10:11.743Z,68.32
2023-10-14T06:11:16.766Z,67.97
2023-10-14T06:12:18.882Z,68.20
2023-10-14T06:13:20.501Z,68.17
2023-10-14T06:14:21.854Z,67.88
2023-10-14T06:15:24.079Z,67.95
2023-10-14T06:16:25.510Z,67.61
2023-10-14T06:17:26.919Z,67.79
2023-10-14T06:18:28.321Z,67.55
2023-10-14T06:19:29.712Z,67.91
2023-10-14T06:20:31.390Z,66.47
2023-10-14T06:21:32.753Z,67.13
2023-10-14T06:22:34.231Z,67.25
2023-10-14T06:23:37.322Z,67.22
2023-10-14T06:24:41.417Z,66.87
2023-10-14T06:25:42.780Z,67.21
2023-10-14T06:26:44.119Z,67.03
2023-10-14T06:27:46.902Z,66.80
2023-10-14T06:28:49.498Z,66.80
2023-10-14T06:29:51.055Z,67.02
2023-10-14T06:30:52.526Z,66.85
2023-10-14T06:32:04.905Z,66.49
2023-10-14T06:33:14.544Z,65.86
2023-10-14T06:34:16.921Z,66.26
2023-10-14T06:35:18.357Z,66.19
2023-10-14T06:36:19.661Z,66.13
2023-10-14T06:37:21.035Z,66.26
2023-10-14T06:38:22.486Z,66.08
2023-10-14T06:39:24.039Z,65.07
2023-10-14T06:40:26.046Z,65.10
2023-10-14T06:41:27.412Z,64.88
2023-10-14T06:42:29.293Z,64.85
2023-10-14T06:43:30.836Z,64.66
2023-10-14T06:44:32.430Z,65.04
2023-10-14T06:45:34.788Z,64.38
2023-10-14T06:46:36.176Z,64.64
2023-10-14T06:47:37.797Z,64.81
2023-10-14T06:48:39.271Z,64.59
2023-10-14T06:49:40.664Z,63.77
2023-10-14T06:50:42.069Z,64.21
2023-10-14T06:51:46.478Z,63.98
2023-10-14T06:52:47.957Z,63.58
2023-10-14T06:53:49.291Z,63.84
2023-10-14T06:54:50.619Z,63.99
2023-10-14T06:55:51.968Z,64.38
2023-10-14T06:56:53.792Z,63.69
2023-10-14T06:57:55.982Z,63.99
2023-10-14T06:58:57.418Z,63.54
2023-10-14T06:59:58.848Z,63.82
2023-10-14T07:01:00.639Z,63.98
2023-10-14T07:02:02.396Z,63.88
2023-10-14T07:03:05.490Z,64.74
2023-10-14T07:04:06.979Z,64.66
2023-10-14T07:05:08.613Z,64.23
2023-10-14T07:06:09.992Z,63.97
2023-10-14T07:07:13.094Z,63.11
2023-10-14T07:08:16.568Z,62.89
2023-10-14T07:09:18.262Z,62.90
2023-10-14T07:10:19.659Z,62.89
2023-10-14T07:11:21.013Z,63.46
2023-10-14T07:12:22.593Z,61.98
2023-10-14T07:13:25.194Z,60.93
2023-10-14T07:14:26.826Z,62.31
2023-10-14T07:15:32.061Z,62.00
2023-10-14T07:16:33.459Z,61.44
2023-10-14T07:17:34.878Z,61.83
2023-10-14T07:18:36.292Z,61.32
2023-10-14T07:19:37.640Z,61.33
2023-10-14T07:20:39.223Z,60.74
2023-10-14T07:21:40.601Z,61.33
2023-10-14T07:22:41.966Z,60.89
2023-10-14T07:23:43.308Z,61.27
2023-10-14T07:24:44.838Z,60.84
2023-10-14T07:25:46.169Z,60.49
2023-10-14T07:26:47.508Z,60.20
2023-10-14T07:27:48.900Z,60.63
2023-10-14T07:28:50.238Z,61.48
2023-10-14T07:29:51.592Z,60.20
2023-10-14T07:30:55.537Z,60.61
2023-10-14T07:31:56.971Z,60.33
2023-10-14T07:32:58.502Z,60.50
2023-10-14T07:34:00.461Z,60.75
2023-10-14T07:35:01.989Z,59.89
2023-10-14T07:36:05.387Z,60.44
2023-10-14T07:37:07.181Z,60.36
2023-10-14T07:38:09.214Z,60.01
2023-10-14T07:39:10.523Z,60.34
2023-10-14T07:40:13.545Z,60.56
2023-10-14T07:41:15.204Z,59.94
2023-10-14T07:42:16.546Z,60.14
2023-10-14T07:43:17.922Z,60.47
2023-10-14T07:44:20.370Z,59.78
2023-10-14T07:45:22.961Z,59.50
2023-10-14T07:46:24.454Z,58.89
2023-10-14T07:47:25.979Z,59.24
2023-10-14T07:48:28.089Z,60.18
2023-10-14T07:49:29.423Z,59.92
2023-10-14T07:50:30.813Z,59.19
2023-10-14T07:51:32.210Z,59.36
2023-10-14T07:52:33.559Z,58.39
2023-10-14T07:53:36.380Z,58.92
2023-10-14T07:54:39.805Z,58.47
2023-10-14T07:55:42.108Z,58.69
2023-10-14T07:56:43.438Z,58.16
2023-10-14T07:57:44.753Z,57.70
2023-10-14T07:58:46.158Z,57.70
2023-10-14T07:59:47.479Z,58.09
2023-10-14T08:00:49.192Z,58.51
2023-10-14T08:01:50.732Z,58.09
2023-10-14T08:02:52.127Z,58.49
2023-10-14T08:03:53.725Z,58.14
2023-10-14T08:04:55.136Z,58.37
2023-10-14T08:05:58.193Z,58.00
2023-10-14T08:06:59.620Z,57.94
2023-10-14T08:08:01.041Z,58.08
2023-10-14T08:09:02.387Z,57.54
2023-10-14T08:10:04.072Z,58.22
2023-10-14T08:11:05.462Z,57.72
2023-10-14T08:12:06.924Z,57.38
2023-10-14T08:13:09.619Z,57.54
2023-10-14T08:14:11.083Z,57.23
2023-10-14T08:15:13.251Z,57.20
2023-10-14T08:16:14.614Z,57.62
2023-10-14T08:17:16.111Z,57.06
2023-10-14T08:18:18.600Z,57.27
2023-10-14T08:19:20.095Z,57.30
2023-10-14T08:20:21.495Z,57.21
2023-10-14T08:21:22.934Z,57.49
2023-10-14T08:22:24.832Z,56.55
2023-10-14T08:23:28.228Z,56.85
2023-10-14T08:24:29.566Z,56.95
2023-10-14T08:25:30.930Z,56.69
2023-10-14T08:26:34.324Z,57.44
2023-10-14T08:27:35.775Z,57.19
2023-10-14T08:28:37.112Z,57.81
2023-10-14T08:29:38.493Z,58.00
2023-10-14T08:30:42.767Z,57.25
2023-10-14T08:31:44.506Z,57.66
2023-10-14T08:32:46.488Z,57.28
2023-10-14T08:33:47.879Z,57.19
2023-10-14T08:34:49.232Z,57.34
2023-10-14T08:35:52.085Z,57.28
2023-10-14T08:36:53.486Z,58.03
2023-10-14T08:37:56.668Z,57.29
2023-10-14T08:38:58.003Z,57.45
2023-10-14T08:39:59.380Z,58.07
2023-10-14T08:41:00.708Z,58.03
2023-10-14T08:42:03.978Z,58.27
2023-10-14T08:43:06.550Z,58.19
2023-10-14T08:44:12.061Z,58.43
2023-10-14T08:45:13.602Z,58.48
2023-10-14T08:46:15.043Z,58.52
2023-10-14T08:47:17.242Z,58.93
2023-10-14T08:48:21.010Z,58.83
2023-10-14T08:49:23.890Z,58.71
2023-10-14T08:50:27.668Z,59.70
2023-10-14T08:51:39.490Z,59.70
2023-10-14T08:52:51.436Z,59.33
2023-10-14T08:53:55.383Z,59.74
2023-10-14T08:54:57.220Z,60.94
2023-10-14T08:55:58.660Z,63.00
2023-10-14T08:57:00.904Z,63.68
2023-10-14T08:58:04.409Z,64.93
2023-10-14T08:59:05.817Z,66.28
2023-10-14T09:00:08.037Z,67.50
2023-10-14T09:01:13.926Z,67.79
2023-10-14T09:02:15.459Z,68.70
2023-10-14T09:03:17.480Z,70.20
2023-10-14T09:04:29.351Z,70.41
2023-10-14T09:05:30.932Z,71.02
2023-10-14T09:06:32.374Z,71.39
2023-10-14T09:07:33.913Z,71.34
2023-10-14T09:08:35.297Z,72.27
2023-10-14T09:09:36.722Z,72.85
2023-10-14T09:10:38.846Z,72.25
2023-10-14T09:11:40.231Z,72.53
2023-10-14T09:13:02.046Z,72.30
2023-10-14T09:14:06.822Z,73.21
2023-10-14T09:15:08.804Z,73.30
2023-10-14T09:16:10.189Z,73.42
2023-10-14T09:17:13.041Z,73.32
2023-10-14T09:18:24.813Z,73.82
2023-10-14T09:19:26.343Z,74.13
2023-10-14T09:20:33.876Z,72.79
2023-10-14T09:21:43.265Z,73.03
2023-10-14T09:22:44.863Z,73.07
2023-10-14T09:23:47.126Z,72.54
2023-10-14T09:24:52.697Z,72.97
2023-10-14T09:25:55.901Z,72.71
2023-10-14T09:26:58.686Z,71.86
2023-10-14T09:28:00.220Z,72.12
2023-10-14T09:29:04.311Z,72.95
2023-10-14T09:30:06.441Z,72.86
2023-10-14T09:31:10.019Z,72.44
2023-10-14T09:32:11.790Z,72.32
2023-10-14T09:33:15.323Z,72.57
2023-10-14T09:34:24.178Z,72.33
2023-10-14T09:35:25.637Z,72.54
2023-10-14T09:36:26.991Z,72.61
2023-10-14T09:37:28.378Z,72.37
2023-10-14T09:38:30.137Z,72.32
2023-10-14T09:39:32.845Z,72.60
2023-10-14T09:40:34.522Z,72.70
2023-10-14T09:41:36.137Z,72.31
2023-10-14T09:42:38.580Z,72.36
2023-10-14T09:43:40.047Z,72.26
2023-10-14T09:44:42.449Z,73.22
2023-10-14T09:45:45.129Z,71.82
2023-10-14T09:46:48.853Z,72.34
2023-10-14T09:47:53.136Z,72.02
2023-10-14T09:48:54.802Z,71.58
2023-10-14T09:49:56.268Z,72.20
2023-10-14T09:50:59.429Z,71.68
2023-10-14T09:52:02.440Z,71.85
2023-10-14T09:53:05.481Z,71.95
2023-10-14T09:54:07.867Z,71.15
2023-10-14T09:55:15.099Z,72.32
2023-10-14T09:56:23.082Z,71.10
2023-10-14T09:57:31.232Z,72.33
2023-10-14T09:58:34.778Z,71.44
2023-10-14T09:59:38.490Z,72.17
2023-10-14T10:00:41.536Z,72.03
2023-10-14T10:01:42.969Z,71.25
2023-10-14T10:02:48.270Z,71.45
2023-10-14T10:04:08.594Z,70.97
2023-10-14T10:05:14.964Z,70.32
2023-10-14T10:06:16.266Z,70.09
2023-10-14T10:08:01.473Z,70.61
2023-10-14T10:09:14.856Z,71.14
2023-10-14T10:10:21.230Z,70.43
2023-10-14T10:11:24.145Z,69.56
2023-10-14T10:12:30.556Z,70.08
2023-10-14T10:13:32.157Z,69.94
2023-10-14T10:14:38.685Z,70.26
2023-10-14T10:15:40.272Z,70.02
2023-10-14T10:16:43.216Z,71.41
2023-10-14T10:17:55.623Z,70.78
2023-10-14T10:18:59.366Z,69.33
2023-10-14T10:20:05.062Z,69.84
2023-10-14T10:21:06.579Z,69.98
2023-10-14T10:22:18.701Z,69.20
2023-10-14T10:23:20.237Z,69.10
2023-10-14T10:24:34.348Z,69.04
2023-10-14T10:25:39.231Z,69.28
2023-10-14T10:27:07.841Z,69.23
2023-10-14T10:28:24.365Z,67.92
2023-10-14T10:29:26.304Z,69.05
2023-10-14T10:30:28.041Z,70.47
2023-10-14T10:31:29.512Z,67.54
2023-10-14T10:32:32.575Z,67.77
2023-10-14T10:33:59.384Z,67.49
2023-10-14T10:35:06.551Z,68.84
2023-10-14T10:36:07.979Z,66.87
2023-10-14T10:37:09.349Z,67.76
2023-10-14T10:38:10.898Z,67.81
2023-10-14T10:39:12.241Z,69.28
2023-10-14T10:40:17.592Z,68.20
2023-10-14T10:41:21.627Z,65.98
2023-10-14T10:42:23.059Z,67.13
2023-10-14T10:43:24.476Z,66.87
2023-10-14T10:44:26.736Z,67.44
2023-10-14T10:45:33.106Z,67.58
2023-10-14T10:46:47.356Z,68.20
2023-10-14T10:47:52.620Z,67.99
2023-10-14T10:48:54.021Z,67.24
2023-10-14T10:49:58.370Z,67.86
2023-10-14T10:51:02.656Z,68.41
2023-10-14T10:52:13.033Z,68.16
2023-10-14T10:53:22.023Z,68.37
2023-10-14T10:54:23.936Z,69.21
2023-10-14T10:55:26.894Z,68.90
2023-10-14T10:56:32.229Z,68.87
2023-10-14T10:57:35.843Z,67.23
2023-10-14T10:58:38.526Z,68.01
2023-10-14T10:59:40.771Z,68.28
2023-10-14T11:00:47.134Z,68.20
2023-10-14T11:01:48.605Z,69.58
2023-10-14T11:02:54.507Z,69.41
2023-10-14T11:03:59.093Z,69.37
2023-10-14T11:05:00.462Z,70.11
2023-10-14T11:06:01.886Z,68.90
2023-10-14T11:07:03.322Z,69.86
2023-10-14T11:08:05.109Z,69.74
2023-10-14T11:09:06.501Z,69.72
2023-10-14T11:10:08.171Z,70.31
2023-10-14T11:11:09.620Z,70.63
2023-10-14T11:12:12.143Z,70.69
2023-10-14T11:13:15.241Z,70.41
2023-10-14T11:14:18.056Z,70.65
2023-10-14T11:15:24.037Z,70.59
2023-10-14T11:16:25.597Z,71.09
2023-10-14T11:17:26.996Z,70.97
2023-10-14T11:19:37.197Z,70.73
2023-10-14T11:20:42.807Z,70.79
2023-10-14T11:21:44.240Z,70.89
2023-10-14T11:22:45.773Z,70.05
2023-10-14T11:23:48.094Z,71.34
2023-10-14T11:24:49.488Z,71.47
2023-10-14T11:25:52.588Z,71.44
2023-10-14T11:26:55.306Z,71.56
2023-10-14T11:27:56.772Z,72.02
2023-10-14T11:28:58.266Z,72.61
2023-10-14T11:29:59.718Z,72.29
2023-10-14T11:31:02.263Z,72.22
2023-10-14T11:32:04.452Z,71.88
2023-10-14T11:33:10.892Z,71.29
2023-10-14T11:34:13.536Z,71.40
2023-10-14T11:35:18.841Z,71.82
2023-10-14T11:36:25.850Z,71.97
2023-10-14T11:37:28.169Z,72.32
2023-10-14T11:38:31.400Z,72.74
2023-10-14T11:39:33.066Z,72.79
2023-10-14T11:40:35.768Z,72.07
2023-10-14T11:41:37.288Z,71.76
2023-10-14T11:42:38.664Z,72.56
2023-10-14T11:43:44.514Z,72.65
2023-10-14T11:44:46.592Z,72.69
2023-10-14T11:45:47.973Z,72.75
2023-10-14T11:46:49.473Z,72.66
2023-10-14T11:47:53.053Z,72.61
2023-10-14T11:48:54.586Z,72.50
2023-10-14T11:49:55.940Z,71.88
2023-10-14T11:51:04.559Z,71.58
2023-10-14T11:52:06.218Z,71.33
2023-10-14T11:53:07.630Z,70.89
2023-10-14T11:54:09.144Z,71.63
2023-10-14T11:55:11.856Z,71.08
2023-10-14T11:56:13.710Z,69.49
2023-10-14T11:57:15.119Z,69.26
2023-10-14T11:58:16.553Z,69.43
2023-10-14T11:59:17.974Z,69.52
2023-10-14T12:00:19.300Z,69.51
2023-10-14T12:01:20.781Z,68.21
2023-10-14T12:02:22.087Z,68.24
2023-10-14T12:03:23.664Z,68.67
2023-10-14T12:04:25.279Z,69.65
2023-10-14T12:05:26.766Z,69.84
2023-10-14T12:06:28.285Z,69.39
2023-10-14T12:07:30.141Z,69.50
2023-10-14T12:08:33.770Z,69.54
2023-10-14T12:09:35.184Z,70.31
2023-10-14T12:10:36.549Z,70.18
2023-10-14T12:11:38.007Z,69.49
2023-10-14T12:12:39.560Z,70.62
2023-10-14T12:13:49.877Z,69.81
2023-10-14T12:14:52.228Z,71.30
2023-10-14T12:15:54.314Z,70.64
2023-10-14T12:16:55.811Z,69.58
2023-10-14T12:17:57.323Z,70.02
2023-10-14T12:18:58.748Z,70.18
2023-10-14T12:20:00.093Z,70.00
2023-10-14T12:21:01.959Z,69.45
2023-10-14T12:22:03.379Z,69.94
2023-10-14T12:23:04.882Z,70.08
2023-10-14T12:24:06.496Z,69.43
2023-10-14T12:25:08.581Z,69.97
2023-10-14T12:26:13.091Z,70.45
2023-10-14T12:27:18.588Z,70.01
2023-10-14T12:28:19.984Z,70.06
2023-10-14T12:29:21.402Z,70.40
2023-10-14T12:30:22.812Z,70.17
2023-10-14T12:31:24.341Z,70.40
2023-10-14T12:32:25.877Z,71.07
2023-10-14T12:33:27.813Z,71.69
2023-10-14T12:34:29.313Z,71.06
2023-10-14T12:35:30.903Z,70.42
2023-10-14T12:36:32.302Z,70.65
2023-10-14T12:37:33.742Z,71.08
2023-10-14T12:38:35.217Z,71.76
2023-10-14T12:39:36.589Z,71.00
2023-10-14T12:40:39.020Z,70.87
2023-10-14T12:41:40.343Z,71.75
2023-10-14T12:42:41.804Z,70.09
2023-10-14T12:43:43.222Z,71.66
2023-10-14T12:44:44.605Z,70.74
2023-10-14T12:45:46.095Z,70.16
2023-10-14T12:46:47.687Z,70.84
2023-10-14T12:47:50.130Z,70.97
2023-10-14T12:48:51.709Z,71.51
2023-10-14T12:49:53.424Z,70.80
2023-10-14T12:50:54.934Z,70.61
2023-10-14T12:51:56.471Z,71.31
2023-10-14T12:52:57.954Z,71.17
2023-10-14T12:53:59.604Z,71.54
2023-10-14T12:55:01.010Z,71.41
2023-10-14T12:56:02.610Z,71.83
2023-10-14T12:57:04.058Z,72.09
2023-10-14T12:58:05.899Z,71.92
2023-10-14T12:59:07.504Z,72.51
2023-10-14T13:00:09.704Z,71.50
2023-10-14T13:01:12.558Z,71.48
2023-10-14T13:02:14.205Z,70.84
2023-10-14T13:03:15.839Z,71.14
2023-10-14T13:04:17.386Z,70.54
2023-10-14T13:05:19.117Z,71.37
2023-10-14T13:06:21.615Z,71.22
2023-10-14T13:07:23.106Z,70.89
2023-10-14T13:08:24.673Z,71.32
2023-10-14T13:09:27.230Z,70.21
2023-10-14T13:10:31.228Z,70.85
2023-10-14T13:11:32.771Z,71.29
2023-10-14T13:12:34.234Z,70.53
2023-10-14T13:13:35.877Z,71.00
2023-10-14T13:14:37.833Z,71.08
2023-10-14T13:15:39.306Z,71.15
2023-10-14T13:16:40.764Z,70.64
2023-10-14T13:17:42.440Z,71.98
2023-10-14T13:18:43.908Z,71.91
2023-10-14T13:19:45.342Z,71.05
2023-10-14T13:20:46.913Z,69.84
2023-10-14T13:21:48.411Z,70.83
2023-10-14T13:22:49.923Z,70.21
2023-10-14T13:23:51.478Z,70.90
2023-10-14T13:24:52.985Z,70.45
2023-10-14T13:25:54.622Z,70.54